createdAt,value
2023-07-22T00:02:26.063Z,17.02
2023-07-22T00:04:53.491Z,17.02
2023-07-22T00:07:22.269Z,17.03
2023-07-22T00:09:51.521Z,17.06
2023-07-22T00:12:18.076Z,17.13
2023-07-22T00:14:46.689Z,17.17
2023-07-22T00:17:13.154Z,17.05
2023-07-22T00:19:42.183Z,16.99
2023-07-22T00:22:08.682Z,16.95
2023-07-22T00:24:42.859Z,16.93
2023-07-22T00:27:09.997Z,16.93
2023-07-22T00:29:36.620Z,16.92
2023-07-22T00:32:03.159Z,16.88
2023-07-22T00:34:29.590Z,16.88
2023-07-22T00:37:00.257Z,16.85
2023-07-22T00:39:26.688Z,16.83
2023-07-22T00:41:53.306Z,16.84
2023-07-22T00:44:19.942Z,16.86
2023-07-22T00:46:46.505Z,16.88
2023-07-22T00:49:17.879Z,16.83
2023-07-22T00:51:46.985Z,16.76
2023-07-22T00:54:15.734Z,16.74
2023-07-22T00:56:42.935Z,16.70
2023-07-22T00:59:09.428Z,16.72
2023-07-22T01:01:35.896Z,16.79
2023-07-22T01:04:02.772Z,16.75
2023-07-22T01:06:31.703Z,16.70
2023-07-22T01:08:59.628Z,16.61
2023-07-22T01:11:26.966Z,16.56
2023-07-22T01:13:59.025Z,16.51
2023-07-22T01:16:28.034Z,16.45
2023-07-22T01:18:55.859Z,16.40
2023-07-22T01:21:24.700Z,16.38
2023-07-22T01:23:51.786Z,16.35
2023-07-22T01:26:18.487Z,16.37
2023-07-22T01:28:45.109Z,16.34
2023-07-22T01:31:14.529Z,16.35
2023-07-22T01:33:41.103Z,16.35
2023-07-22T01:36:08.528Z,16.38
2023-07-22T01:38:36.750Z,16.36
2023-07-22T01:41:05.690Z,16.32
2023-07-22T01:43:32.236Z,16.32
2023-07-22T01:46:00.888Z,16.31
2023-07-22T01:48:27.478Z,16.31
2023-07-22T01:50:53.876Z,16.28
2023-07-22T01:53:21.552Z,16.28
2023-07-22T01:55:47.969Z,16.30
2023-07-22T01:58:14.380Z,16.31
2023-07-22T02:00:40.883Z,16.34
2023-07-22T02:03:07.359Z,16.35
2023-07-22T02:05:33.987Z,16.31
2023-07-22T02:08:00.649Z,16.29
2023-07-22T02:10:27.191Z,16.30
2023-07-22T02:12:53.685Z,16.29
2023-07-22T02:15:20.249Z,16.30
2023-07-22T02:17:46.897Z,16.31
2023-07-22T02:20:15.836Z,16.48
2023-07-22T02:22:42.361Z,16.55
2023-07-22T02:25:11.451Z,16.48
2023-07-22T02:27:41.526Z,16.44
2023-07-22T02:30:11.722Z,16.40
2023-07-22T02:32:40.119Z,16.39
2023-07-22T02:35:13.802Z,16.42
2023-07-22T02:37:40.533Z,16.40
2023-07-22T02:40:12.928Z,16.42
2023-07-22T02:42:40.440Z,16.44
2023-07-22T02:45:09.027Z,16.46
2023-07-22T02:47:35.697Z,16.45
2023-07-22T02:50:02.738Z,16.50
2023-07-22T02:52:29.208Z,16.50
2023-07-22T02:55:13.136Z,16.42
2023-07-22T02:57:41.039Z,16.27
2023-07-22T03:00:09.059Z,16.26
2023-07-22T03:02:41.680Z,16.20
2023-07-22T03:05:09.615Z,15.98
2023-07-22T03:07:37.226Z,15.84
2023-07-22T03:10:09.271Z,15.72
2023-07-22T03:12:36.945Z,15.67
2023-07-22T03:15:09.358Z,15.82
2023-07-22T03:17:39.228Z,15.83
2023-07-22T03:20:15.631Z,15.74
2023-07-22T03:22:42.702Z,15.57
2023-07-22T03:25:13.112Z,15.55
2023-07-22T03:27:40.554Z,15.54
2023-07-22T03:30:11.695Z,15.68
2023-07-22T03:32:38.255Z,15.78
2023-07-22T03:35:05.098Z,15.73
2023-07-22T03:37:34.194Z,15.64
2023-07-22T03:40:00.622Z,15.54
2023-07-22T03:42:27.135Z,15.52
2023-07-22T03:44:56.077Z,15.53
2023-07-22T03:47:22.535Z,15.59
2023-07-22T03:49:49.109Z,15.50
2023-07-22T03:52:19.378Z,15.49
2023-07-22T03:54:48.387Z,15.45
2023-07-22T03:57:17.365Z,15.36
2023-07-22T03:59:43.972Z,15.37
2023-07-22T04:02:10.430Z,15.39
2023-07-22T04:04:36.886Z,15.42
2023-07-22T04:07:08.895Z,15.44
2023-07-22T04:09:35.558Z,15.47
2023-07-22T04:12:02.372Z,15.40
2023-07-22T04:14:28.834Z,15.41
2023-07-22T04:16:55.356Z,15.54
2023-07-22T04:19:22.333Z,15.61
2023-07-22T04:21:48.811Z,15.56
2023-07-22T04:24:15.461Z,15.53
2023-07-22T04:26:48.447Z,15.56
2023-07-22T04:29:15.094Z,15.50
2023-07-22T04:31:43.967Z,15.43
2023-07-22T04:34:13.742Z,15.41
2023-07-22T04:36:40.330Z,15.39
2023-07-22T04:39:06.916Z,15.41
2023-07-22T04:41:33.416Z,15.41
2023-07-22T04:44:00.383Z,15.46
2023-07-22T04:46:27.708Z,15.42
2023-07-22T04:48:59.210Z,15.41
2023-07-22T04:51:25.896Z,15.42
2023-07-22T04:53:52.327Z,15.42
2023-07-22T04:56:18.810Z,15.50
2023-07-22T04:58:45.360Z,15.44
2023-07-22T05:01:11.889Z,15.44
2023-07-22T05:03:38.522Z,15.42
2023-07-22T05:06:05.138Z,15.40
2023-07-22T05:08:31.695Z,15.41
2023-07-22T05:10:58.095Z,15.40
2023-07-22T05:13:25.370Z,15.40
2023-07-22T05:15:51.870Z,15.42
2023-07-22T05:18:18.270Z,15.40
2023-07-22T05:20:47.878Z,15.39
2023-07-22T05:23:14.415Z,15.39
2023-07-22T05:25:40.835Z,15.40
2023-07-22T05:28:07.324Z,15.43
2023-07-22T05:30:36.112Z,15.45
2023-07-22T05:33:05.654Z,15.50
2023-07-22T05:35:32.205Z,15.52
2023-07-22T05:37:58.630Z,15.54
2023-07-22T05:40:25.112Z,15.54
2023-07-22T05:42:51.566Z,15.48
2023-07-22T05:45:18.103Z,15.55
2023-07-22T05:47:46.865Z,15.56
2023-07-22T05:50:13.548Z,15.58
2023-07-22T05:52:40.076Z,15.69
2023-07-22T05:55:09.008Z,15.65
2023-07-22T05:57:36.059Z,15.73
2023-07-22T06:00:09.034Z,15.76
2023-07-22T06:02:38.514Z,15.79
2023-07-22T06:05:05.320Z,15.82
2023-07-22T06:07:31.917Z,15.85
2023-07-22T06:09:58.419Z,16.01
2023-07-22T06:12:29.935Z,16.04
2023-07-22T06:14:56.974Z,16.05
2023-07-22T06:17:23.453Z,16.14
2023-07-22T06:19:49.889Z,16.21
2023-07-22T06:22:16.404Z,16.29
2023-07-22T06:24:52.699Z,16.32
2023-07-22T06:27:20.110Z,16.40
2023-07-22T06:29:46.522Z,16.38
2023-07-22T06:32:13.045Z,16.42
2023-07-22T06:34:39.505Z,16.44
2023-07-22T06:37:06.323Z,16.42
2023-07-22T06:39:32.890Z,16.45
2023-07-22T06:41:59.300Z,16.45
2023-07-22T06:44:25.953Z,16.50
2023-07-22T06:46:52.421Z,16.56
2023-07-22T06:49:18.895Z,16.64
2023-07-22T06:51:47.713Z,16.74
2023-07-22T06:54:14.319Z,16.78
2023-07-22T06:56:40.816Z,16.92
2023-07-22T06:59:07.213Z,17.06
2023-07-22T07:01:36.802Z,17.29
2023-07-22T07:04:03.288Z,17.45
2023-07-22T07:06:31.052Z,17.50
2023-07-22T07:09:01.194Z,17.67
2023-07-22T07:11:30.194Z,17.76
2023-07-22T07:13:56.738Z,17.79
2023-07-22T07:16:28.984Z,17.82
2023-07-22T07:18:56.621Z,17.86
2023-07-22T07:21:24.009Z,17.85
2023-07-22T07:23:57.090Z,17.86
2023-07-22T07:26:23.611Z,17.83
2023-07-22T07:28:51.958Z,17.84
2023-07-22T07:31:18.592Z,17.87
2023-07-22T07:33:47.806Z,17.95
2023-07-22T07:36:14.327Z,17.94
2023-07-22T07:38:40.798Z,17.96
2023-07-22T07:41:12.658Z,18.08
2023-07-22T07:43:40.629Z,18.12
2023-07-22T07:46:33.652Z,18.15
2023-07-22T07:49:03.380Z,18.17
2023-07-22T07:51:32.163Z,18.26
2023-07-22T07:54:00.352Z,18.33
2023-07-22T07:56:27.392Z,18.37
2023-07-22T07:58:58.451Z,18.40
2023-07-22T08:01:25.148Z,18.39
2023-07-22T08:03:51.788Z,18.33
2023-07-22T08:06:21.065Z,18.40
2023-07-22T08:08:47.588Z,18.41
2023-07-22T08:11:15.598Z,18.42
2023-07-22T08:13:43.823Z,18.52
2023-07-22T08:16:11.986Z,18.59
2023-07-22T08:18:39.008Z,18.62
2023-07-22T08:21:10.169Z,18.61
2023-07-22T08:23:37.996Z,18.67
2023-07-22T08:26:08.405Z,18.73
2023-07-22T08:28:35.553Z,18.82
2023-07-22T08:31:02.244Z,18.85
2023-07-22T08:33:39.645Z,18.89
2023-07-22T08:36:11.258Z,18.95
2023-07-22T08:38:38.129Z,19.05
2023-07-22T08:41:04.766Z,19.25
2023-07-22T08:43:41.148Z,19.63
2023-07-22T08:46:08.667Z,19.92
2023-07-22T08:48:41.895Z,20.02
2023-07-22T08:51:14.496Z,19.87
2023-07-22T08:53:41.929Z,19.82
2023-07-22T08:56:09.985Z,19.85
2023-07-22T08:58:37.302Z,20.14
2023-07-22T09:01:03.967Z,20.57
2023-07-22T09:03:30.785Z,20.71
2023-07-22T09:05:57.984Z,21.01
2023-07-22T09:08:25.257Z,21.43
2023-07-22T09:10:51.797Z,21.66
2023-07-22T09:13:20.482Z,21.72
2023-07-22T09:15:48.943Z,21.97
2023-07-22T09:18:16.798Z,22.06
2023-07-22T09:20:43.720Z,22.07
2023-07-22T09:23:13.998Z,22.44
2023-07-22T09:25:42.932Z,22.49
2023-07-22T09:28:11.914Z,22.91
2023-07-22T09:30:40.286Z,23.15
2023-07-22T09:33:08.910Z,23.16
2023-07-22T09:35:47.741Z,23.07
2023-07-22T09:38:18.173Z,22.84
2023-07-22T09:40:47.214Z,22.84
2023-07-22T09:43:14.970Z,23.16
2023-07-22T09:45:41.431Z,23.37
2023-07-22T09:48:10.545Z,23.67
2023-07-22T09:50:37.620Z,23.85
2023-07-22T09:53:05.067Z,24.03
2023-07-22T09:55:33.027Z,24.41
2023-07-22T09:58:11.989Z,24.38
2023-07-22T10:00:40.140Z,24.53
2023-07-22T10:03:11.077Z,24.70
2023-07-22T10:05:40.940Z,24.85
2023-07-22T10:08:07.939Z,25.03
2023-07-22T10:10:39.716Z,25.19
2023-07-22T10:13:06.855Z,25.22
2023-07-22T10:15:35.459Z,25.39
2023-07-22T10:18:08.934Z,25.56
2023-07-22T10:20:37.866Z,25.58
2023-07-22T10:23:05.003Z,25.63
2023-07-22T10:25:31.860Z,25.58
2023-07-22T10:28:00.669Z,25.46
2023-07-22T10:30:27.229Z,25.67
2023-07-22T10:32:54.735Z,25.48
2023-07-22T10:35:44.095Z,25.54
2023-07-22T10:38:12.403Z,25.79
2023-07-22T10:40:52.698Z,26.32
2023-07-22T10:43:26.602Z,25.93
2023-07-22T10:45:55.697Z,26.16
2023-07-22T10:48:26.767Z,26.34
2023-07-22T10:50:55.318Z,26.41
2023-07-22T10:53:27.723Z,26.09
2023-07-22T10:56:14.246Z,26.18
2023-07-22T10:58:47.190Z,25.96
2023-07-22T11:01:30.385Z,25.90
2023-07-22T11:04:23.666Z,25.45
2023-07-22T11:06:50.310Z,25.13
2023-07-22T11:09:29.991Z,24.94
2023-07-22T11:11:59.291Z,24.73
2023-07-22T11:14:28.323Z,24.85
2023-07-22T11:16:57.644Z,24.94
2023-07-22T11:19:27.830Z,24.94
2023-07-22T11:21:55.634Z,25.30
2023-07-22T11:24:23.874Z,25.77
2023-07-22T11:26:51.365Z,26.05
2023-07-22T11:29:18.056Z,26.29
2023-07-22T11:31:47.282Z,26.48
2023-07-22T11:34:18.295Z,26.63
2023-07-22T11:36:45.921Z,26.84
2023-07-22T11:39:15.450Z,26.50
2023-07-22T11:41:43.720Z,26.06
2023-07-22T11:44:14.376Z,26.17
2023-07-22T11:46:50.218Z,26.08
2023-07-22T11:49:38.529Z,25.86
2023-07-22T11:52:06.453Z,25.70
2023-07-22T11:54:34.761Z,25.46
2023-07-22T11:57:22.727Z,25.29
2023-07-22T11:59:51.797Z,25.09
2023-07-22T12:02:19.035Z,25.04
2023-07-22T12:05:01.899Z,25.53
2023-07-22T12:07:33.205Z,25.43
2023-07-22T12:10:02.002Z,25.31
2023-07-22T12:12:34.604Z,25.12
2023-07-22T12:15:14.147Z,25.10
2023-07-22T12:17:57.814Z,25.14
2023-07-22T12:20:31.139Z,24.86
2023-07-22T12:23:01.990Z,24.98
2023-07-22T12:25:28.687Z,25.32
2023-07-22T12:27:55.314Z,25.50
2023-07-22T12:30:22.333Z,25.46
2023-07-22T12:32:49.462Z,25.31
2023-07-22T12:35:16.628Z,25.21
2023-07-22T12:37:47.969Z,25.06
2023-07-22T12:40:15.196Z,24.86
2023-07-22T12:42:42.111Z,24.78
2023-07-22T12:45:09.407Z,25.08
2023-07-22T12:47:36.401Z,25.43
2023-07-22T12:50:02.966Z,25.87
2023-07-22T12:52:31.845Z,26.07
2023-07-22T12:54:58.666Z,25.91
2023-07-22T12:57:25.074Z,25.80
2023-07-22T12:59:51.624Z,25.64
2023-07-22T13:02:18.209Z,25.58
2023-07-22T13:04:45.263Z,25.77
2023-07-22T13:07:11.958Z,26.19
2023-07-22T13:09:41.739Z,26.34
2023-07-22T13:12:08.412Z,26.17
2023-07-22T13:14:36.881Z,25.87
2023-07-22T13:17:05.592Z,25.68
2023-07-22T13:19:33.348Z,25.67
2023-07-22T13:21:59.767Z,25.63
2023-07-22T13:24:26.170Z,25.76
2023-07-22T13:26:52.641Z,26.22
2023-07-22T13:29:19.206Z,26.54
2023-07-22T13:31:45.691Z,26.20
2023-07-22T13:34:12.232Z,25.96
2023-07-22T13:36:41.150Z,26.37
2023-07-22T13:39:07.724Z,26.55
2023-07-22T13:41:36.708Z,26.80
2023-07-22T13:44:03.890Z,26.82
2023-07-22T13:46:32.628Z,26.62
2023-07-22T13:48:59.079Z,26.45
2023-07-22T13:51:25.632Z,26.51
2023-07-22T13:53:55.961Z,26.33
2023-07-22T13:56:22.397Z,26.15
2023-07-22T13:58:48.895Z,26.21
2023-07-22T14:01:15.303Z,26.52
2023-07-22T14:03:41.731Z,26.58
2023-07-22T14:06:09.346Z,26.56
2023-07-22T14:08:35.764Z,26.47
2023-07-22T14:11:02.219Z,26.61
2023-07-22T14:13:28.745Z,26.78
2023-07-22T14:15:56.795Z,26.98
2023-07-22T14:18:25.817Z,27.10
2023-07-22T14:20:52.325Z,27.09
2023-07-22T14:23:18.757Z,27.20
2023-07-22T14:25:45.206Z,27.19
2023-07-22T14:28:11.786Z,27.21
2023-07-22T14:30:38.320Z,27.24
2023-07-22T14:33:04.768Z,27.24
2023-07-22T14:35:33.643Z,27.13
2023-07-22T14:38:06.048Z,27.24
2023-07-22T14:40:32.477Z,27.26
2023-07-22T14:42:59.295Z,27.31
2023-07-22T14:45:25.743Z,27.28
2023-07-22T14:47:52.186Z,27.22
2023-07-22T14:50:24.069Z,27.18
2023-07-22T14:52:50.563Z,27.23
2023-07-22T14:55:17.054Z,27.21
2023-07-22T14:57:43.614Z,27.03
2023-07-22T15:00:11.583Z,26.77
2023-07-22T15:02:38.075Z,26.84
2023-07-22T15:05:04.989Z,26.83
2023-07-22T15:07:31.489Z,26.76
2023-07-22T15:10:01.126Z,26.80
2023-07-22T15:12:27.719Z,26.66
2023-07-22T15:14:54.224Z,26.46
2023-07-22T15:17:22.368Z,26.35
2023-07-22T15:19:50.559Z,26.46
2023-07-22T15:22:17.470Z,26.49
2023-07-22T15:24:43.892Z,26.49
2023-07-22T15:27:10.878Z,26.50
2023-07-22T15:29:37.415Z,26.47
2023-07-22T15:32:04.206Z,26.51
2023-07-22T15:34:35.270Z,26.47
2023-07-22T15:37:04.248Z,26.47
2023-07-22T15:39:30.777Z,26.44
2023-07-22T15:41:59.594Z,26.42
2023-07-22T15:44:28.962Z,26.32
2023-07-22T15:46:55.884Z,26.24
2023-07-22T15:49:22.424Z,26.07
2023-07-22T15:51:49.153Z,25.95
2023-07-22T15:54:19.108Z,25.92
2023-07-22T15:56:45.611Z,25.93
2023-07-22T15:59:14.196Z,25.87
2023-07-22T16:01:40.996Z,25.77
2023-07-22T16:04:08.268Z,25.67
2023-07-22T16:06:34.998Z,25.64
2023-07-22T16:09:01.783Z,25.66
2023-07-22T16:11:28.722Z,25.62
2023-07-22T16:13:55.611Z,25.61
2023-07-22T16:16:22.315Z,25.55
2023-07-22T16:18:48.855Z,25.58
2023-07-22T16:21:15.407Z,25.58
2023-07-22T16:23:44.291Z,25.55
2023-07-22T16:26:10.855Z,25.55
2023-07-22T16:28:45.035Z,25.51
2023-07-22T16:31:13.728Z,25.49
2023-07-22T16:33:40.275Z,25.43
2023-07-22T16:36:06.761Z,25.36
2023-07-22T16:38:33.238Z,25.30
2023-07-22T16:41:02.248Z,25.25
2023-07-22T16:43:28.775Z,25.24
2023-07-22T16:45:59.998Z,25.21
2023-07-22T16:48:26.691Z,25.13
2023-07-22T16:50:53.263Z,25.09
2023-07-22T16:53:19.752Z,25.11
2023-07-22T16:55:46.316Z,25.00
2023-07-22T16:58:12.771Z,24.95
2023-07-22T17:00:39.337Z,24.96
2023-07-22T17:03:06.193Z,25.01
2023-07-22T17:05:33.216Z,25.05
2023-07-22T17:08:01.329Z,24.99
2023-07-22T17:10:28.308Z,24.96
2023-07-22T17:12:57.097Z,24.89
2023-07-22T17:15:23.791Z,24.88
2023-07-22T17:17:50.332Z,24.78
2023-07-22T17:20:17.217Z,24.71
2023-07-22T17:22:43.680Z,24.68
2023-07-22T17:25:10.178Z,24.60
2023-07-22T17:27:38.958Z,24.46
2023-07-22T17:30:06.019Z,24.38
2023-07-22T17:32:32.671Z,24.35
2023-07-22T17:34:59.288Z,24.28
2023-07-22T17:37:35.496Z,24.22
2023-07-22T17:40:02.119Z,24.19
2023-07-22T17:42:28.651Z,24.20
2023-07-22T17:44:56.504Z,24.17
2023-07-22T17:47:23.214Z,24.12
2023-07-22T17:49:49.811Z,24.04
2023-07-22T17:52:16.288Z,23.98
2023-07-22T17:54:45.902Z,23.88
2023-07-22T17:57:15.299Z,23.85
2023-07-22T17:59:42.364Z,23.81
2023-07-22T18:02:09.026Z,23.74
2023-07-22T18:04:35.947Z,23.70
2023-07-22T18:07:04.038Z,23.63
2023-07-22T18:09:32.739Z,23.61
2023-07-22T18:11:59.168Z,23.56
2023-07-22T18:14:25.747Z,23.53
2023-07-22T18:16:52.234Z,23.50
2023-07-22T18:19:18.773Z,23.43
2023-07-22T18:21:45.254Z,23.33
2023-07-22T18:24:11.752Z,23.25
2023-07-22T18:26:38.253Z,23.20
2023-07-22T18:29:05.215Z,23.17
2023-07-22T18:31:31.892Z,23.04
2023-07-22T18:33:58.554Z,22.94
2023-07-22T18:36:25.124Z,22.82
2023-07-22T18:38:51.574Z,22.79
2023-07-22T18:41:18.089Z,22.68
2023-07-22T18:43:47.579Z,22.61
2023-07-22T18:46:19.818Z,22.50
2023-07-22T18:48:49.840Z,22.40
2023-07-22T18:51:16.913Z,22.29
2023-07-22T18:53:43.879Z,22.19
2023-07-22T18:56:10.536Z,22.10
2023-07-22T18:58:37.128Z,22.03
2023-07-22T19:01:03.603Z,21.99
2023-07-22T19:03:30.624Z,21.90
2023-07-22T19:05:59.217Z,21.88
2023-07-22T19:08:28.676Z,21.81
2023-07-22T19:10:55.567Z,21.78
2023-07-22T19:13:24.299Z,21.75
2023-07-22T19:15:54.522Z,21.73
2023-07-22T19:18:21.074Z,21.71
2023-07-22T19:20:58.603Z,21.66
2023-07-22T19:23:26.880Z,21.65
2023-07-22T19:25:56.606Z,21.59
2023-07-22T19:28:23.604Z,21.57
2023-07-22T19:30:57.659Z,21.40
2023-07-22T19:33:25.072Z,21.35
2023-07-22T19:36:23.139Z,21.30
2023-07-22T19:38:49.651Z,21.20
2023-07-22T19:41:18.378Z,21.10
2023-07-22T19:43:48.439Z,21.07
2023-07-22T19:46:16.852Z,20.98
2023-07-22T19:48:45.926Z,20.93
2023-07-22T19:51:14.864Z,20.86
2023-07-22T19:53:45.946Z,20.79
2023-07-22T19:56:13.384Z,20.75
2023-07-22T19:58:40.815Z,20.70
2023-07-22T20:01:07.457Z,20.64
2023-07-22T20:03:40.996Z,20.62
2023-07-22T20:06:09.378Z,20.55
2023-07-22T20:08:40.601Z,20.53
2023-07-22T20:11:07.557Z,20.46
2023-07-22T20:13:34.454Z,20.45
2023-07-22T20:16:03.276Z,20.39
2023-07-22T20:18:29.991Z,20.32
2023-07-22T20:20:56.901Z,20.27
2023-07-22T20:23:23.310Z,20.14
2023-07-22T20:25:49.686Z,20.06
2023-07-22T20:28:16.239Z,19.95
2023-07-22T20:30:42.694Z,19.89
2023-07-22T20:33:09.303Z,19.85
2023-07-22T20:35:36.213Z,19.80
2023-07-22T20:38:05.099Z,19.76
2023-07-22T20:40:31.566Z,19.68
2023-07-22T20:42:58.054Z,19.65
2023-07-22T20:45:24.616Z,19.64
2023-07-22T20:47:51.414Z,19.56
2023-07-22T20:50:18.278Z,19.51
2023-07-22T20:52:44.810Z,19.47
2023-07-22T20:55:11.259Z,19.37
2023-07-22T20:57:40.972Z,19.33
2023-07-22T21:00:10.725Z,19.30
2023-07-22T21:02:37.310Z,19.25
2023-07-22T21:05:06.848Z,19.19
2023-07-22T21:07:33.413Z,19.12
2023-07-22T21:10:02.280Z,19.09
2023-07-22T21:12:29.397Z,19.03
2023-07-22T21:14:55.971Z,19.01
2023-07-22T21:17:23.581Z,19.00
2023-07-22T21:20:00.050Z,19.01
2023-07-22T21:22:26.511Z,19.01
2023-07-22T21:24:53.032Z,19.03
2023-07-22T21:27:20.109Z,19.00
2023-07-22T21:29:47.569Z,18.98
2023-07-22T21:32:16.286Z,18.96
2023-07-22T21:34:43.213Z,18.99
2023-07-22T21:37:09.622Z,18.99
2023-07-22T21:39:38.391Z,18.98
2023-07-22T21:42:06.462Z,18.98
2023-07-22T21:44:32.905Z,18.99
2023-07-22T21:46:59.449Z,18.98
2023-07-22T21:49:25.921Z,18.99
2023-07-22T21:51:55.019Z,18.99
2023-07-22T21:54:21.518Z,18.98
2023-07-22T21:56:51.020Z,18.96
2023-07-22T21:59:17.451Z,18.97
2023-07-22T22:01:46.610Z,18.97
2023-07-22T22:04:13.108Z,18.95
2023-07-22T22:06:44.259Z,18.91
2023-07-22T22:09:11.237Z,18.85
2023-07-22T22:11:44.553Z,18.83
2023-07-22T22:14:11.303Z,18.83
2023-07-22T22:16:38.008Z,18.74
2023-07-22T22:19:04.636Z,18.65
2023-07-22T22:21:31.073Z,18.60
2023-07-22T22:23:57.498Z,18.53
2023-07-22T22:26:23.970Z,18.52
2023-07-22T22:28:52.211Z,18.47
2023-07-22T22:31:19.475Z,18.42
2023-07-22T22:33:48.490Z,18.39
2023-07-22T22:36:15.041Z,18.38
2023-07-22T22:38:41.425Z,18.38
2023-07-22T22:41:07.887Z,18.40
2023-07-22T22:43:38.909Z,18.39
2023-07-22T22:46:12.589Z,18.39
2023-07-22T22:48:39.031Z,18.40
2023-07-22T22:51:07.125Z,18.40
2023-07-22T22:53:33.576Z,18.42
2023-07-22T22:56:04.208Z,18.42
2023-07-22T22:58:30.644Z,18.43
2023-07-22T23:00:59.455Z,18.42
2023-07-22T23:03:28.092Z,18.43
2023-07-22T23:05:54.561Z,18.44
2023-07-22T23:08:21.062Z,18.44
2023-07-22T23:10:49.715Z,18.44
2023-07-22T23:13:18.715Z,18.44
2023-07-22T23:15:47.326Z,18.40
2023-07-22T23:18:15.031Z,18.41
2023-07-22T23:20:43.240Z,18.34
2023-07-22T23:23:09.842Z,18.35
2023-07-22T23:25:36.242Z,18.24
2023-07-22T23:28:02.738Z,18.18
2023-07-22T23:30:34.491Z,18.12
2023-07-22T23:33:01.489Z,18.03
2023-07-22T23:35:30.438Z,18.00
2023-07-22T23:37:59.213Z,17.94
2023-07-22T23:40:30.629Z,17.82
2023-07-22T23:42:57.176Z,17.83
2023-07-22T23:45:23.754Z,17.85
2023-07-22T23:47:50.177Z,17.90
2023-07-22T23:50:17.500Z,17.86
2023-07-22T23:52:43.950Z,17.98
2023-07-22T23:55:10.502Z,17.91
2023-07-22T23:57:36.897Z,17.81
